sensor_id;sensor_type;location;lat;lon;timestamp;temperature;humidity
4435;DHT22;46552;52.150;8.428;2023-07-29T00:00:58;20.60;99.90
4435;DHT22;46552;52.150;8.428;2023-07-29T00:03:28;21.00;99.90
4435;DHT22;46552;52.150;8.428;2023-07-29T00:05:56;20.70;99.90
4435;DHT22;46552;52.150;8.428;2023-07-29T00:08:23;21.00;99.90
4435;DHT22;46552;52.150;8.428;2023-07-29T00:10:51;20.60;99.90
4435;DHT22;46552;52.150;8.428;2023-07-29T00:13:18;20.50;99.90
4435;DHT22;46552;52.150;8.428;2023-07-29T00:15:45;20.40;99.90
4435;DHT22;46552;52.150;8.428;2023-07-29T00:18:15;20.60;99.90
4435;DHT22;46552;52.150;8.428;2023-07-29T00:20:44;20.50;99.90
4435;DHT22;46552;52.150;8.428;2023-07-29T00:23:11;20.60;99.90
4435;DHT22;46552;52.150;8.428;2023-07-29T00:25:38;20.60;99.90
4435;DHT22;46552;52.150;8.428;2023-07-29T00:28:06;20.60;99.90
4435;DHT22;46552;52.150;8.428;2023-07-29T00:30:33;20.70;99.90
4435;DHT22;46552;52.150;8.428;2023-07-29T00:35:28;20.50;99.90
4435;DHT22;46552;52.150;8.428;2023-07-29T00:37:56;20.50;99.90
4435;DHT22;46552;52.150;8.428;2023-07-29T00:40:24;20.60;99.90
4435;DHT22;46552;52.150;8.428;2023-07-29T00:42:51;20.50;99.90
4435;DHT22;46552;52.150;8.428;2023-07-29T00:45:19;20.40;99.90
4435;DHT22;46552;52.150;8.428;2023-07-29T00:47:47;20.40;99.90
4435;DHT22;46552;52.150;8.428;2023-07-29T00:50:15;20.70;99.90
4435;DHT22;46552;52.150;8.428;2023-07-29T00:52:42;20.30;99.90
4435;DHT22;46552;52.150;8.428;2023-07-29T00:55:12;20.50;99.90
4435;DHT22;46552;52.150;8.428;2023-07-29T00:57:39;19.90;99.90
4435;DHT22;46552;52.150;8.428;2023-07-29T01:00:08;20.10;99.90
4435;DHT22;46552;52.150;8.428;2023-07-29T01:05:04;20.50;99.90
4435;DHT22;46552;52.150;8.428;2023-07-29T01:07:36;18.10;99.90
4435;DHT22;46552;52.150;8.428;2023-07-29T01:10:10;20.40;99.90
4435;DHT22;46552;52.150;8.428;2023-07-29T01:12:47;20.40;99.90
4435;DHT22;46552;52.150;8.428;2023-07-29T01:15:18;20.30;99.90
4435;DHT22;46552;52.150;8.428;2023-07-29T01:17:49;20.00;99.90
4435;DHT22;46552;52.150;8.428;2023-07-29T01:20:20;20.30;99.90
4435;DHT22;46552;52.150;8.428;2023-07-29T01:22:49;20.20;99.90
4435;DHT22;46552;52.150;8.428;2023-07-29T01:25:20;20.20;99.90
4435;DHT22;46552;52.150;8.428;2023-07-29T01:27:49;20.20;99.90
4435;DHT22;46552;52.150;8.428;2023-07-29T01:30:19;20.20;99.90
4435;DHT22;46552;52.150;8.428;2023-07-29T01:32:51;20.10;99.90
4435;DHT22;46552;52.150;8.428;2023-07-29T01:35:26;20.00;99.90
4435;DHT22;46552;52.150;8.428;2023-07-29T01:37:56;20.30;99.90
4435;DHT22;46552;52.150;8.428;2023-07-29T01:40:28;20.30;99.90
4435;DHT22;46552;52.150;8.428;2023-07-29T01:42:56;20.20;99.90
4435;DHT22;46552;52.150;8.428;2023-07-29T01:47:52;20.10;99.90
4435;DHT22;46552;52.150;8.428;2023-07-29T01:52:48;20.10;99.90
4435;DHT22;46552;52.150;8.428;2023-07-29T01:55:16;20.30;99.90
4435;DHT22;46552;52.150;8.428;2023-07-29T01:57:44;20.10;99.90
4435;DHT22;46552;52.150;8.428;2023-07-29T02:00:12;20.10;99.90
4435;DHT22;46552;52.150;8.428;2023-07-29T02:02:39;20.20;99.90
4435;DHT22;46552;52.150;8.428;2023-07-29T02:05:07;20.30;99.90
4435;DHT22;46552;52.150;8.428;2023-07-29T02:07:34;19.90;99.90
4435;DHT22;46552;52.150;8.428;2023-07-29T02:10:01;20.00;99.90
4435;DHT22;46552;52.150;8.428;2023-07-29T02:12:29;20.20;99.90
4435;DHT22;46552;52.150;8.428;2023-07-29T02:14:57;20.00;99.90
4435;DHT22;46552;52.150;8.428;2023-07-29T02:17:25;20.20;99.90
4435;DHT22;46552;52.150;8.428;2023-07-29T02:22:19;20.00;99.90
4435;DHT22;46552;52.150;8.428;2023-07-29T02:24:47;19.80;99.90
4435;DHT22;46552;52.150;8.428;2023-07-29T02:27:14;20.00;99.90
4435;DHT22;46552;52.150;8.428;2023-07-29T02:29:41;20.00;99.90
4435;DHT22;46552;52.150;8.428;2023-07-29T02:32:10;20.10;99.90
4435;DHT22;46552;52.150;8.428;2023-07-29T02:34:37;19.90;99.90
4435;DHT22;46552;52.150;8.428;2023-07-29T02:42:01;19.80;99.90
4435;DHT22;46552;52.150;8.428;2023-07-29T02:44:28;19.60;99.90
4435;DHT22;46552;52.150;8.428;2023-07-29T02:46:55;19.90;99.90
4435;DHT22;46552;52.150;8.428;2023-07-29T02:49:25;19.60;99.90
4435;DHT22;46552;52.150;8.428;2023-07-29T02:51:53;19.60;99.90
4435;DHT22;46552;52.150;8.428;2023-07-29T02:56:49;19.60;99.90
4435;DHT22;46552;52.150;8.428;2023-07-29T02:59:16;19.80;99.90
4435;DHT22;46552;52.150;8.428;2023-07-29T03:04:11;19.70;99.90
4435;DHT22;46552;52.150;8.428;2023-07-29T03:06:41;19.70;99.90
4435;DHT22;46552;52.150;8.428;2023-07-29T03:09:09;19.80;99.90
4435;DHT22;46552;52.150;8.428;2023-07-29T03:11:36;19.80;99.90
4435;DHT22;46552;52.150;8.428;2023-07-29T03:14:03;19.70;99.90
4435;DHT22;46552;52.150;8.428;2023-07-29T03:16:32;20.10;99.90
4435;DHT22;46552;52.150;8.428;2023-07-29T03:18:59;19.70;99.90
4435;DHT22;46552;52.150;8.428;2023-07-29T03:23:57;19.80;99.90
4435;DHT22;46552;52.150;8.428;2023-07-29T03:26:24;19.90;99.90
4435;DHT22;46552;52.150;8.428;2023-07-29T03:28:52;19.90;99.90
4435;DHT22;46552;52.150;8.428;2023-07-29T03:33:46;19.80;99.90
4435;DHT22;46552;52.150;8.428;2023-07-29T03:36:14;20.00;99.90
4435;DHT22;46552;52.150;8.428;2023-07-29T03:41:12;20.20;99.90
4435;DHT22;46552;52.150;8.428;2023-07-29T03:43:39;19.90;99.90
4435;DHT22;46552;52.150;8.428;2023-07-29T03:46:07;20.00;99.90
4435;DHT22;46552;52.150;8.428;2023-07-29T03:48:34;19.70;99.90
4435;DHT22;46552;52.150;8.428;2023-07-29T03:51:02;19.90;99.90
4435;DHT22;46552;52.150;8.428;2023-07-29T03:58:25;19.80;99.90
4435;DHT22;46552;52.150;8.428;2023-07-29T04:00:52;19.90;99.90
4435;DHT22;46552;52.150;8.428;2023-07-29T04:08:14;19.60;99.90
4435;DHT22;46552;52.150;8.428;2023-07-29T04:13:10;19.70;99.90
4435;DHT22;46552;52.150;8.428;2023-07-29T04:15:39;20.10;99.90
4435;DHT22;46552;52.150;8.428;2023-07-29T04:18:06;19.90;99.90
4435;DHT22;46552;52.150;8.428;2023-07-29T04:30:24;19.90;99.90
4435;DHT22;46552;52.150;8.428;2023-07-29T04:32:52;19.90;99.90
4435;DHT22;46552;52.150;8.428;2023-07-29T04:40:15;20.20;99.90
4435;DHT22;46552;52.150;8.428;2023-07-29T04:45:09;20.10;99.90
4435;DHT22;46552;52.150;8.428;2023-07-29T04:47:37;20.30;99.90
4435;DHT22;46552;52.150;8.428;2023-07-29T04:50:07;20.00;99.90
4435;DHT22;46552;52.150;8.428;2023-07-29T04:52:34;20.10;99.90
4435;DHT22;46552;52.150;8.428;2023-07-29T04:57:28;20.20;99.90
4435;DHT22;46552;52.150;8.428;2023-07-29T05:02:23;19.20;99.90
4435;DHT22;46552;52.150;8.428;2023-07-29T05:04:50;20.20;99.90
4435;DHT22;46552;52.150;8.428;2023-07-29T05:07:18;20.20;99.90
4435;DHT22;46552;52.150;8.428;2023-07-29T05:09:45;20.00;99.90
4435;DHT22;46552;52.150;8.428;2023-07-29T05:12:12;20.20;99.90
4435;DHT22;46552;52.150;8.428;2023-07-29T05:14:39;20.10;99.90
4435;DHT22;46552;52.150;8.428;2023-07-29T05:19:33;20.10;99.90
4435;DHT22;46552;52.150;8.428;2023-07-29T05:24:29;19.90;99.90
4435;DHT22;46552;52.150;8.428;2023-07-29T05:26:56;20.30;99.90
4435;DHT22;46552;52.150;8.428;2023-07-29T05:29:23;20.10;99.90
4435;DHT22;46552;52.150;8.428;2023-07-29T05:31:50;20.20;99.90
4435;DHT22;46552;52.150;8.428;2023-07-29T05:41:41;20.80;99.90
4435;DHT22;46552;52.150;8.428;2023-07-29T05:44:08;20.30;99.90
4435;DHT22;46552;52.150;8.428;2023-07-29T05:46:35;20.40;99.90
4435;DHT22;46552;52.150;8.428;2023-07-29T05:49:02;20.30;99.90
4435;DHT22;46552;52.150;8.428;2023-07-29T05:51:30;20.20;99.90
4435;DHT22;46552;52.150;8.428;2023-07-29T05:58:53;20.50;99.90
4435;DHT22;46552;52.150;8.428;2023-07-29T06:08:43;20.40;99.90
4435;DHT22;46552;52.150;8.428;2023-07-29T06:16:06;20.70;99.90
4435;DHT22;46552;52.150;8.428;2023-07-29T06:33:24;20.80;99.90
4435;DHT22;46552;52.150;8.428;2023-07-29T06:35:51;20.90;99.90
4435;DHT22;46552;52.150;8.428;2023-07-29T06:38:19;20.70;99.90
4435;DHT22;46552;52.150;8.428;2023-07-29T06:40:47;21.00;99.90
4435;DHT22;46552;52.150;8.428;2023-07-29T06:48:10;20.90;99.90
4435;DHT22;46552;52.150;8.428;2023-07-29T06:50:39;20.90;99.90
4435;DHT22;46552;52.150;8.428;2023-07-29T06:55:33;21.10;99.90
4435;DHT22;46552;52.150;8.428;2023-07-29T07:05:23;20.90;99.90
4435;DHT22;46552;52.150;8.428;2023-07-29T07:07:52;20.90;99.90
4435;DHT22;46552;52.150;8.428;2023-07-29T07:10:19;20.90;99.90
4435;DHT22;46552;52.150;8.428;2023-07-29T07:15:14;21.20;99.90
4435;DHT22;46552;52.150;8.428;2023-07-29T07:17:43;20.70;99.90
4435;DHT22;46552;52.150;8.428;2023-07-29T07:20:11;20.60;99.90
4435;DHT22;46552;52.150;8.428;2023-07-29T07:22:38;20.60;99.90
4435;DHT22;46552;52.150;8.428;2023-07-29T07:25:08;20.70;99.90
4435;DHT22;46552;52.150;8.428;2023-07-29T07:27:35;20.70;99.90
4435;DHT22;46552;52.150;8.428;2023-07-29T07:30:03;20.60;99.90
4435;DHT22;46552;52.150;8.428;2023-07-29T07:32:31;20.90;99.90
4435;DHT22;46552;52.150;8.428;2023-07-29T07:34:59;20.80;99.90
4435;DHT22;46552;52.150;8.428;2023-07-29T07:39:53;20.90;99.90
4435;DHT22;46552;52.150;8.428;2023-07-29T07:42:22;21.10;99.90
4435;DHT22;46552;52.150;8.428;2023-07-29T07:44:49;21.20;99.90
4435;DHT22;46552;52.150;8.428;2023-07-29T07:52:15;21.60;99.90
4435;DHT22;46552;52.150;8.428;2023-07-29T07:54:42;21.80;99.90
4435;DHT22;46552;52.150;8.428;2023-07-29T07:59:38;22.00;99.90
4435;DHT22;46552;52.150;8.428;2023-07-29T08:02:05;21.90;99.90
4435;DHT22;46552;52.150;8.428;2023-07-29T08:07:02;22.40;99.90
4435;DHT22;46552;52.150;8.428;2023-07-29T08:09:29;22.30;99.90
4435;DHT22;46552;52.150;8.428;2023-07-29T08:11:57;22.30;99.90
4435;DHT22;46552;52.150;8.428;2023-07-29T08:16:53;22.40;99.90
4435;DHT22;46552;52.150;8.428;2023-07-29T08:21:47;22.40;99.90
4435;DHT22;46552;52.150;8.428;2023-07-29T08:24:15;22.40;99.90
4435;DHT22;46552;52.150;8.428;2023-07-29T08:26:42;22.60;99.90
4435;DHT22;46552;52.150;8.428;2023-07-29T08:29:09;22.30;99.90
4435;DHT22;46552;52.150;8.428;2023-07-29T08:34:06;22.30;99.90
4435;DHT22;46552;52.150;8.428;2023-07-29T08:36:34;22.20;99.90
4435;DHT22;46552;52.150;8.428;2023-07-29T08:39:02;22.20;99.90
4435;DHT22;46552;52.150;8.428;2023-07-29T08:41:32;21.50;99.90
4435;DHT22;46552;52.150;8.428;2023-07-29T08:44:08;21.80;99.90
4435;DHT22;46552;52.150;8.428;2023-07-29T08:46:37;22.10;99.90
4435;DHT22;46552;52.150;8.428;2023-07-29T08:49:07;22.00;99.90
4435;DHT22;46552;52.150;8.428;2023-07-29T08:51:35;22.30;99.90
4435;DHT22;46552;52.150;8.428;2023-07-29T08:54:03;21.10;99.90
4435;DHT22;46552;52.150;8.428;2023-07-29T08:56:31;22.20;99.90
4435;DHT22;46552;52.150;8.428;2023-07-29T08:58:58;22.10;99.90
4435;DHT22;46552;52.150;8.428;2023-07-29T09:06:25;22.60;99.90
4435;DHT22;46552;52.150;8.428;2023-07-29T09:08:53;22.70;99.90
4435;DHT22;46552;52.150;8.428;2023-07-29T09:11:22;22.90;99.90
4435;DHT22;46552;52.150;8.428;2023-07-29T09:13:49;23.30;99.90
4435;DHT22;46552;52.150;8.428;2023-07-29T09:16:17;23.50;99.90
4435;DHT22;46552;52.150;8.428;2023-07-29T09:18:45;23.80;99.90
4435;DHT22;46552;52.150;8.428;2023-07-29T09:21:16;23.90;99.90
4435;DHT22;46552;52.150;8.428;2023-07-29T09:23:45;24.00;99.90
4435;DHT22;46552;52.150;8.428;2023-07-29T09:28:41;24.30;99.90
4435;DHT22;46552;52.150;8.428;2023-07-29T09:31:20;24.40;99.90
4435;DHT22;46552;52.150;8.428;2023-07-29T09:33:48;24.40;99.90
4435;DHT22;46552;52.150;8.428;2023-07-29T09:36:16;24.30;99.90
4435;DHT22;46552;52.150;8.428;2023-07-29T09:38:45;24.20;99.90
4435;DHT22;46552;52.150;8.428;2023-07-29T09:41:13;24.30;99.90
4435;DHT22;46552;52.150;8.428;2023-07-29T09:46:08;24.50;99.90
4435;DHT22;46552;52.150;8.428;2023-07-29T09:48:38;24.60;99.90
4435;DHT22;46552;52.150;8.428;2023-07-29T09:51:13;24.80;99.90
4435;DHT22;46552;52.150;8.428;2023-07-29T09:53:42;25.00;99.90
4435;DHT22;46552;52.150;8.428;2023-07-29T09:56:12;25.20;99.90
4435;DHT22;46552;52.150;8.428;2023-07-29T09:58:43;25.10;99.90
4435;DHT22;46552;52.150;8.428;2023-07-29T10:01:11;25.10;99.90
4435;DHT22;46552;52.150;8.428;2023-07-29T10:03:38;25.10;99.90
4435;DHT22;46552;52.150;8.428;2023-07-29T10:06:07;25.10;99.90
4435;DHT22;46552;52.150;8.428;2023-07-29T10:08:34;25.10;99.90
4435;DHT22;46552;52.150;8.428;2023-07-29T10:11:05;25.10;99.90
4435;DHT22;46552;52.150;8.428;2023-07-29T10:13:37;25.10;99.90
4435;DHT22;46552;52.150;8.428;2023-07-29T10:16:05;25.00;99.90
4435;DHT22;46552;52.150;8.428;2023-07-29T10:18:33;24.90;99.90
4435;DHT22;46552;52.150;8.428;2023-07-29T10:21:01;26.30;99.90
4435;DHT22;46552;52.150;8.428;2023-07-29T10:23:34;25.30;99.90
4435;DHT22;46552;52.150;8.428;2023-07-29T10:26:06;25.50;99.90
4435;DHT22;46552;52.150;8.428;2023-07-29T10:28:40;25.50;99.90
4435;DHT22;46552;52.150;8.428;2023-07-29T10:31:09;25.60;99.90
4435;DHT22;46552;52.150;8.428;2023-07-29T10:33:37;25.80;99.90
4435;DHT22;46552;52.150;8.428;2023-07-29T10:36:05;26.10;99.90
4435;DHT22;46552;52.150;8.428;2023-07-29T10:38:33;26.00;99.90
4435;DHT22;46552;52.150;8.428;2023-07-29T10:43:32;26.20;99.70
4435;DHT22;46552;52.150;8.428;2023-07-29T10:46:15;26.30;99.80
4435;DHT22;46552;52.150;8.428;2023-07-29T10:48:44;26.30;99.90
4435;DHT22;46552;52.150;8.428;2023-07-29T10:51:29;26.50;99.90
4435;DHT22;46552;52.150;8.428;2023-07-29T10:54:00;26.60;99.90
4435;DHT22;46552;52.150;8.428;2023-07-29T10:56:29;26.40;99.90
4435;DHT22;46552;52.150;8.428;2023-07-29T10:58:58;26.30;99.90
4435;DHT22;46552;52.150;8.428;2023-07-29T11:01:31;26.20;99.90
4435;DHT22;46552;52.150;8.428;2023-07-29T11:04:24;26.00;98.30
4435;DHT22;46552;52.150;8.428;2023-07-29T11:07:26;26.70;99.90
4435;DHT22;46552;52.150;8.428;2023-07-29T11:10:01;26.70;99.50
4435;DHT22;46552;52.150;8.428;2023-07-29T11:12:38;26.60;99.90
4435;DHT22;46552;52.150;8.428;2023-07-29T11:15:16;26.40;99.90
4435;DHT22;46552;52.150;8.428;2023-07-29T11:17:46;26.20;98.00
4435;DHT22;46552;52.150;8.428;2023-07-29T11:20:15;26.20;98.20
4435;DHT22;46552;52.150;8.428;2023-07-29T11:25:12;25.90;98.20
4435;DHT22;46552;52.150;8.428;2023-07-29T11:27:41;25.90;99.90
4435;DHT22;46552;52.150;8.428;2023-07-29T11:30:09;25.70;99.90
4435;DHT22;46552;52.150;8.428;2023-07-29T11:32:39;25.90;99.90
4435;DHT22;46552;52.150;8.428;2023-07-29T11:35:10;25.90;99.90
4435;DHT22;46552;52.150;8.428;2023-07-29T11:37:39;25.90;98.20
4435;DHT22;46552;52.150;8.428;2023-07-29T11:40:07;25.90;98.00
4435;DHT22;46552;52.150;8.428;2023-07-29T11:42:36;26.20;98.00
4435;DHT22;46552;52.150;8.428;2023-07-29T11:45:05;29.30;98.70
4435;DHT22;46552;52.150;8.428;2023-07-29T11:50:03;26.50;97.50
4435;DHT22;46552;52.150;8.428;2023-07-29T11:52:33;26.70;97.30
4435;DHT22;46552;52.150;8.428;2023-07-29T11:55:03;26.70;99.90
4435;DHT22;46552;52.150;8.428;2023-07-29T11:57:31;27.60;97.30
4435;DHT22;46552;52.150;8.428;2023-07-29T11:59:58;26.70;99.90
4435;DHT22;46552;52.150;8.428;2023-07-29T12:02:26;26.40;96.80
4435;DHT22;46552;52.150;8.428;2023-07-29T12:04:54;26.90;96.90
4435;DHT22;46552;52.150;8.428;2023-07-29T12:07:21;26.90;99.90
4435;DHT22;46552;52.150;8.428;2023-07-29T12:09:52;27.20;99.20
4435;DHT22;46552;52.150;8.428;2023-07-29T12:12:22;27.10;96.70
4435;DHT22;46552;52.150;8.428;2023-07-29T12:14:49;27.30;98.30
4435;DHT22;46552;52.150;8.428;2023-07-29T12:17:16;27.20;99.90
4435;DHT22;46552;52.150;8.428;2023-07-29T12:22:17;26.90;97.20
4435;DHT22;46552;52.150;8.428;2023-07-29T12:27:14;26.60;99.90
4435;DHT22;46552;52.150;8.428;2023-07-29T12:29:43;26.40;97.60
4435;DHT22;46552;52.150;8.428;2023-07-29T12:32:12;25.90;99.10
4435;DHT22;46552;52.150;8.428;2023-07-29T12:34:39;26.00;97.90
4435;DHT22;46552;52.150;8.428;2023-07-29T12:37:07;25.70;99.90
4435;DHT22;46552;52.150;8.428;2023-07-29T12:39:40;27.30;98.70
4435;DHT22;46552;52.150;8.428;2023-07-29T12:44:37;25.70;98.40
4435;DHT22;46552;52.150;8.428;2023-07-29T12:47:05;25.90;98.30
4435;DHT22;46552;52.150;8.428;2023-07-29T12:49:34;26.10;99.70
4435;DHT22;46552;52.150;8.428;2023-07-29T12:52:01;26.40;99.90
4435;DHT22;46552;52.150;8.428;2023-07-29T12:54:28;26.50;99.90
4435;DHT22;46552;52.150;8.428;2023-07-29T13:01:51;26.60;97.70
4435;DHT22;46552;52.150;8.428;2023-07-29T13:04:19;26.60;97.90
4435;DHT22;46552;52.150;8.428;2023-07-29T13:06:46;26.60;99.90
4435;DHT22;46552;52.150;8.428;2023-07-29T13:11:41;26.50;99.90
4435;DHT22;46552;52.150;8.428;2023-07-29T13:14:08;26.60;99.90
4435;DHT22;46552;52.150;8.428;2023-07-29T13:16:35;26.30;99.90
4435;DHT22;46552;52.150;8.428;2023-07-29T13:19:04;26.60;97.80
4435;DHT22;46552;52.150;8.428;2023-07-29T13:23:58;26.60;98.60
4435;DHT22;46552;52.150;8.428;2023-07-29T13:26:25;26.70;99.90
4435;DHT22;46552;52.150;8.428;2023-07-29T13:28:53;26.70;99.90
4435;DHT22;46552;52.150;8.428;2023-07-29T13:36:17;26.40;99.20
4435;DHT22;46552;52.150;8.428;2023-07-29T13:38:44;26.30;99.90
4435;DHT22;46552;52.150;8.428;2023-07-29T13:41:11;26.10;99.90
4435;DHT22;46552;52.150;8.428;2023-07-29T13:43:38;26.10;99.20
4435;DHT22;46552;52.150;8.428;2023-07-29T13:46:06;26.10;98.90
4435;DHT22;46552;52.150;8.428;2023-07-29T13:48:33;26.00;99.90
4435;DHT22;46552;52.150;8.428;2023-07-29T13:53:30;26.00;97.60
4435;DHT22;46552;52.150;8.428;2023-07-29T13:55:57;25.90;97.60
4435;DHT22;46552;52.150;8.428;2023-07-29T14:03:19;25.90;99.90
4435;DHT22;46552;52.150;8.428;2023-07-29T14:05:46;26.00;99.70
4435;DHT22;46552;52.150;8.428;2023-07-29T14:10:42;26.10;97.40
4435;DHT22;46552;52.150;8.428;2023-07-29T14:13:09;26.30;99.80
4435;DHT22;46552;52.150;8.428;2023-07-29T14:18:03;26.50;98.40
4435;DHT22;46552;52.150;8.428;2023-07-29T14:20:32;26.50;97.30
4435;DHT22;46552;52.150;8.428;2023-07-29T14:25:27;26.30;97.30
4435;DHT22;46552;52.150;8.428;2023-07-29T14:37:46;25.60;97.90
4435;DHT22;46552;52.150;8.428;2023-07-29T14:40:13;25.40;98.00
4435;DHT22;46552;52.150;8.428;2023-07-29T14:45:10;25.10;99.90
4435;DHT22;46552;52.150;8.428;2023-07-29T14:50:05;24.90;98.90
4435;DHT22;46552;52.150;8.428;2023-07-29T14:52:32;24.90;99.90
4435;DHT22;46552;52.150;8.428;2023-07-29T14:57:27;24.60;99.90
4435;DHT22;46552;52.150;8.428;2023-07-29T15:02:24;24.30;99.90
4435;DHT22;46552;52.150;8.428;2023-07-29T15:09:46;21.30;99.80
4435;DHT22;46552;52.150;8.428;2023-07-29T15:14:41;23.60;99.90
4435;DHT22;46552;52.150;8.428;2023-07-29T15:19:41;23.30;99.90
4435;DHT22;46552;52.150;8.428;2023-07-29T15:22:09;23.20;99.90
4435;DHT22;46552;52.150;8.428;2023-07-29T15:27:06;23.10;99.90
4435;DHT22;46552;52.150;8.428;2023-07-29T15:32:01;23.10;99.90
4435;DHT22;46552;52.150;8.428;2023-07-29T15:34:29;23.10;99.90
4435;DHT22;46552;52.150;8.428;2023-07-29T15:36:59;23.10;99.90
4435;DHT22;46552;52.150;8.428;2023-07-29T15:39:28;23.30;99.90
4435;DHT22;46552;52.150;8.428;2023-07-29T15:41:56;23.40;99.90
4435;DHT22;46552;52.150;8.428;2023-07-29T15:44:23;23.40;99.90
4435;DHT22;46552;52.150;8.428;2023-07-29T15:46:50;23.50;99.90
4435;DHT22;46552;52.150;8.428;2023-07-29T15:49:18;23.50;99.90
4435;DHT22;46552;52.150;8.428;2023-07-29T15:51:45;23.40;99.90
4435;DHT22;46552;52.150;8.428;2023-07-29T15:54:14;23.20;99.90
4435;DHT22;46552;52.150;8.428;2023-07-29T15:56:41;23.10;99.90
4435;DHT22;46552;52.150;8.428;2023-07-29T15:59:08;23.00;99.90
4435;DHT22;46552;52.150;8.428;2023-07-29T16:04:03;22.90;99.90
4435;DHT22;46552;52.150;8.428;2023-07-29T16:06:31;23.00;99.90
4435;DHT22;46552;52.150;8.428;2023-07-29T16:08:58;22.80;99.90
4435;DHT22;46552;52.150;8.428;2023-07-29T16:11:33;22.80;99.90
4435;DHT22;46552;52.150;8.428;2023-07-29T16:16:28;22.70;99.90
4435;DHT22;46552;52.150;8.428;2023-07-29T16:18:55;22.70;99.90
4435;DHT22;46552;52.150;8.428;2023-07-29T16:21:23;22.80;99.90
4435;DHT22;46552;52.150;8.428;2023-07-29T16:23:50;22.70;99.90
4435;DHT22;46552;52.150;8.428;2023-07-29T16:26:18;22.70;99.90
4435;DHT22;46552;52.150;8.428;2023-07-29T16:28:47;22.80;99.90
4435;DHT22;46552;52.150;8.428;2023-07-29T16:33:44;22.70;99.90
4435;DHT22;46552;52.150;8.428;2023-07-29T16:36:11;22.60;99.90
4435;DHT22;46552;52.150;8.428;2023-07-29T16:41:06;22.80;99.90
4435;DHT22;46552;52.150;8.428;2023-07-29T16:43:33;22.70;99.90
4435;DHT22;46552;52.150;8.428;2023-07-29T16:46:02;22.80;99.90
4435;DHT22;46552;52.150;8.428;2023-07-29T16:48:29;22.60;99.90
4435;DHT22;46552;52.150;8.428;2023-07-29T16:53:25;22.50;99.90
4435;DHT22;46552;52.150;8.428;2023-07-29T16:58:19;22.40;99.90
4435;DHT22;46552;52.150;8.428;2023-07-29T17:00:47;22.40;99.90
4435;DHT22;46552;52.150;8.428;2023-07-29T17:03:17;22.50;99.90
4435;DHT22;46552;52.150;8.428;2023-07-29T17:05:45;22.30;99.90
4435;DHT22;46552;52.150;8.428;2023-07-29T17:10:40;22.10;99.90
4435;DHT22;46552;52.150;8.428;2023-07-29T17:13:07;22.20;99.90
4435;DHT22;46552;52.150;8.428;2023-07-29T17:20:32;22.10;99.90
4435;DHT22;46552;52.150;8.428;2023-07-29T17:22:59;22.00;99.90
4435;DHT22;46552;52.150;8.428;2023-07-29T17:30:24;21.90;99.90
4435;DHT22;46552;52.150;8.428;2023-07-29T17:32:54;21.90;99.90
4435;DHT22;46552;52.150;8.428;2023-07-29T17:37:50;21.80;99.90
4435;DHT22;46552;52.150;8.428;2023-07-29T17:40:17;21.80;99.90
4435;DHT22;46552;52.150;8.428;2023-07-29T17:42:44;21.90;99.90
4435;DHT22;46552;52.150;8.428;2023-07-29T17:47:38;21.90;99.90
4435;DHT22;46552;52.150;8.428;2023-07-29T17:50:06;21.90;99.90
4435;DHT22;46552;52.150;8.428;2023-07-29T17:52:34;21.80;99.90
4435;DHT22;46552;52.150;8.428;2023-07-29T17:55:05;21.80;99.90
4435;DHT22;46552;52.150;8.428;2023-07-29T18:04:57;21.50;99.90
4435;DHT22;46552;52.150;8.428;2023-07-29T18:07:26;21.80;99.90
4435;DHT22;46552;52.150;8.428;2023-07-29T18:09:53;21.60;99.90
4435;DHT22;46552;52.150;8.428;2023-07-29T18:12:22;21.60;99.90
4435;DHT22;46552;52.150;8.428;2023-07-29T18:14:49;21.50;99.90
4435;DHT22;46552;52.150;8.428;2023-07-29T18:17:16;21.50;99.90
4435;DHT22;46552;52.150;8.428;2023-07-29T18:19:44;21.40;99.90
4435;DHT22;46552;52.150;8.428;2023-07-29T18:22:11;21.50;99.90
4435;DHT22;46552;52.150;8.428;2023-07-29T18:24:38;21.40;99.90
4435;DHT22;46552;52.150;8.428;2023-07-29T18:27:06;21.40;99.90
4435;DHT22;46552;52.150;8.428;2023-07-29T18:29:36;21.40;99.90
4435;DHT22;46552;52.150;8.428;2023-07-29T18:32:03;21.30;99.90
4435;DHT22;46552;52.150;8.428;2023-07-29T18:34:32;21.30;99.90
4435;DHT22;46552;52.150;8.428;2023-07-29T18:36:59;20.60;99.90
4435;DHT22;46552;52.150;8.428;2023-07-29T18:39:26;21.20;99.90
4435;DHT22;46552;52.150;8.428;2023-07-29T18:46:50;21.20;99.90
4435;DHT22;46552;52.150;8.428;2023-07-29T18:51:44;21.10;99.90
4435;DHT22;46552;52.150;8.428;2023-07-29T18:54:13;21.00;99.90
4435;DHT22;46552;52.150;8.428;2023-07-29T18:56:39;20.70;99.90
4435;DHT22;46552;52.150;8.428;2023-07-29T19:01:35;21.00;99.90
4435;DHT22;46552;52.150;8.428;2023-07-29T19:04:04;20.80;99.90
4435;DHT22;46552;52.150;8.428;2023-07-29T19:08:58;20.70;99.90
4435;DHT22;46552;52.150;8.428;2023-07-29T19:13:52;20.80;99.90
4435;DHT22;46552;52.150;8.428;2023-07-29T19:16:19;20.50;99.90
4435;DHT22;46552;52.150;8.428;2023-07-29T19:21:16;20.60;99.90
4435;DHT22;46552;52.150;8.428;2023-07-29T19:23:45;20.50;99.90
4435;DHT22;46552;52.150;8.428;2023-07-29T19:31:08;20.40;99.90
4435;DHT22;46552;52.150;8.428;2023-07-29T19:33:36;20.40;99.90
4435;DHT22;46552;52.150;8.428;2023-07-29T19:36:06;20.40;99.90
4435;DHT22;46552;52.150;8.428;2023-07-29T19:38:37;20.50;99.90
4435;DHT22;46552;52.150;8.428;2023-07-29T19:45:59;20.40;99.90
4435;DHT22;46552;52.150;8.428;2023-07-29T19:48:29;20.50;99.90
4435;DHT22;46552;52.150;8.428;2023-07-29T19:50:57;20.20;99.90
4435;DHT22;46552;52.150;8.428;2023-07-29T19:53:24;20.10;99.90
4435;DHT22;46552;52.150;8.428;2023-07-29T19:55:53;20.20;99.90
4435;DHT22;46552;52.150;8.428;2023-07-29T20:00:49;20.20;99.90
4435;DHT22;46552;52.150;8.428;2023-07-29T20:05:44;20.20;99.90
4435;DHT22;46552;52.150;8.428;2023-07-29T20:08:11;20.10;99.90
4435;DHT22;46552;52.150;8.428;2023-07-29T20:10:38;20.20;99.90
4435;DHT22;46552;52.150;8.428;2023-07-29T20:13:07;20.00;99.90
4435;DHT22;46552;52.150;8.428;2023-07-29T20:15:34;20.40;99.90
4435;DHT22;46552;52.150;8.428;2023-07-29T20:18:02;20.20;99.90
4435;DHT22;46552;52.150;8.428;2023-07-29T20:20:29;19.80;99.90
4435;DHT22;46552;52.150;8.428;2023-07-29T20:25:23;19.90;99.90
4435;DHT22;46552;52.150;8.428;2023-07-29T20:27:51;19.90;99.90
4435;DHT22;46552;52.150;8.428;2023-07-29T20:30:19;19.90;99.90
4435;DHT22;46552;52.150;8.428;2023-07-29T20:35:14;19.80;99.90
4435;DHT22;46552;52.150;8.428;2023-07-29T20:37:41;19.80;99.90
4435;DHT22;46552;52.150;8.428;2023-07-29T20:40:09;20.00;99.90
4435;DHT22;46552;52.150;8.428;2023-07-29T20:42:36;19.80;99.90
4435;DHT22;46552;52.150;8.428;2023-07-29T20:45:04;19.80;99.90
4435;DHT22;46552;52.150;8.428;2023-07-29T20:47:34;19.80;99.90
4435;DHT22;46552;52.150;8.428;2023-07-29T20:54:57;19.90;99.90
4435;DHT22;46552;52.150;8.428;2023-07-29T20:57:25;19.80;99.90
4435;DHT22;46552;52.150;8.428;2023-07-29T20:59:52;19.50;99.90
4435;DHT22;46552;52.150;8.428;2023-07-29T21:04:48;19.60;99.90
4435;DHT22;46552;52.150;8.428;2023-07-29T21:07:15;19.60;99.90
4435;DHT22;46552;52.150;8.428;2023-07-29T21:09:42;19.40;99.90